createdAt,value
2018-08-16T00:00:02.964Z,85.12
2018-08-16T00:02:31.438Z,84.39
2018-08-16T00:04:59.760Z,84.22
2018-08-16T00:07:28.069Z,83.55
2018-08-16T00:09:56.871Z,84.38
2018-08-16T00:12:25.224Z,85.25
2018-08-16T00:14:53.550Z,85.13
2018-08-16T00:17:21.880Z,85.27
2018-08-16T00:19:50.146Z,85.16
2018-08-16T00:22:18.480Z,84.09
2018-08-16T00:24:46.774Z,83.04
2018-08-16T00:27:15.094Z,83.35
2018-08-16T00:29:43.502Z,83.07
2018-08-16T00:33:15.314Z,83.60
2018-08-16T00:35:43.602Z,83.76
2018-08-16T00:38:11.997Z,84.20
2018-08-16T00:40:40.335Z,84.45
2018-08-16T00:43:08.668Z,84.68
2018-08-16T00:45:37.014Z,84.47
2018-08-16T00:48:05.419Z,83.96
2018-08-16T00:50:34.022Z,83.35
2018-08-16T00:53:02.355Z,83.37
2018-08-16T00:55:30.691Z,84.19
2018-08-16T00:57:59.046Z,84.79
2018-08-16T01:00:27.358Z,85.35
2018-08-16T01:02:55.653Z,85.48
2018-08-16T01:05:24.027Z,84.34
2018-08-16T01:07:52.310Z,84.42
2018-08-16T01:10:20.562Z,86.25
2018-08-16T01:12:48.875Z,87.85
2018-08-16T01:15:17.521Z,86.24
2018-08-16T01:17:45.861Z,84.56
2018-08-16T01:20:14.379Z,85.00
2018-08-16T01:22:42.647Z,85.02
2018-08-16T01:25:12.051Z,84.78
2018-08-16T01:27:40.364Z,85.28
2018-08-16T01:30:09.744Z,86.31
2018-08-16T01:32:38.014Z,86.88
2018-08-16T01:35:06.802Z,85.92
2018-08-16T01:37:35.159Z,84.68
2018-08-16T01:40:03.607Z,84.32
2018-08-16T01:42:31.891Z,84.05
2018-08-16T01:45:00.217Z,84.63
2018-08-16T01:47:28.702Z,85.47
2018-08-16T01:49:56.982Z,86.36
2018-08-16T01:52:25.384Z,86.20
2018-08-16T01:54:53.669Z,86.21
2018-08-16T01:57:22.002Z,85.17
2018-08-16T01:59:50.370Z,84.50
2018-08-16T02:02:18.745Z,84.32
2018-08-16T02:04:47.029Z,83.71
2018-08-16T02:07:15.366Z,83.69
2018-08-16T02:09:43.754Z,84.53
2018-08-16T02:12:12.135Z,87.21
2018-08-16T02:14:40.462Z,87.24
2018-08-16T02:17:08.821Z,88.53
2018-08-16T02:19:37.111Z,88.99
2018-08-16T02:22:05.503Z,87.67
2018-08-16T02:24:33.776Z,87.82
2018-08-16T02:27:02.079Z,86.83
2018-08-16T02:29:30.394Z,86.29
2018-08-16T02:31:58.710Z,86.49
2018-08-16T02:34:27.281Z,86.54
2018-08-16T02:36:55.794Z,87.35
2018-08-16T02:39:24.159Z,87.73
2018-08-16T02:41:52.527Z,88.26
2018-08-16T02:44:20.875Z,88.57
2018-08-16T02:46:49.146Z,88.24
2018-08-16T02:49:17.488Z,87.61
2018-08-16T02:51:45.795Z,86.62
2018-08-16T02:54:14.136Z,86.08
2018-08-16T02:56:42.424Z,85.42
2018-08-16T02:59:10.744Z,85.53
2018-08-16T03:01:39.039Z,86.19
2018-08-16T03:04:07.456Z,85.98
2018-08-16T03:06:35.742Z,85.60
2018-08-16T03:09:05.631Z,85.94
2018-08-16T03:11:33.926Z,86.00
2018-08-16T03:14:02.257Z,86.23
2018-08-16T03:16:30.611Z,87.22
2018-08-16T03:18:58.938Z,87.64
2018-08-16T03:21:27.294Z,87.64
2018-08-16T03:23:55.888Z,88.02
2018-08-16T03:26:24.508Z,87.58
2018-08-16T03:28:59.472Z,87.15
2018-08-16T03:31:27.836Z,87.11
2018-08-16T03:33:56.115Z,87.10
2018-08-16T03:36:24.484Z,86.84
2018-08-16T03:38:52.759Z,88.25
2018-08-16T03:41:21.114Z,88.55
2018-08-16T03:43:49.419Z,88.14
2018-08-16T03:46:17.898Z,88.17
2018-08-16T03:48:46.169Z,87.58
2018-08-16T03:51:14.473Z,87.41
2018-08-16T03:53:42.773Z,87.46
2018-08-16T03:56:11.113Z,87.32
2018-08-16T03:58:39.408Z,87.78
2018-08-16T04:01:07.995Z,88.15
2018-08-16T04:03:36.314Z,89.13
2018-08-16T04:06:04.682Z,88.24
2018-08-16T04:08:33.134Z,87.93
2018-08-16T04:11:01.450Z,87.28
2018-08-16T04:13:29.778Z,87.56
2018-08-16T04:15:58.105Z,87.45
2018-08-16T04:18:26.520Z,87.02
2018-08-16T04:20:54.851Z,86.80
2018-08-16T04:23:23.347Z,86.23
2018-08-16T04:25:51.723Z,86.08
2018-08-16T04:28:20.022Z,86.51
2018-08-16T04:30:48.290Z,87.08
2018-08-16T04:33:16.585Z,86.98
2018-08-16T04:35:44.882Z,86.96
2018-08-16T04:38:13.239Z,87.32
2018-08-16T04:40:41.562Z,87.53
2018-08-16T04:43:09.894Z,86.75
2018-08-16T04:45:38.236Z,86.27
2018-08-16T04:48:07.140Z,85.89
2018-08-16T04:50:35.645Z,85.86
2018-08-16T04:53:04.114Z,85.64
2018-08-16T04:55:32.448Z,85.82
2018-08-16T04:58:00.824Z,85.34
2018-08-16T05:00:29.223Z,85.02
2018-08-16T05:02:57.574Z,85.11
2018-08-16T05:05:26.295Z,85.08
2018-08-16T05:07:54.613Z,84.93
2018-08-16T05:10:22.994Z,84.94
2018-08-16T05:12:51.571Z,84.37
2018-08-16T05:15:19.968Z,84.68
2018-08-16T05:17:48.410Z,83.88
2018-08-16T05:20:16.774Z,85.10
2018-08-16T05:22:45.253Z,84.65
2018-08-16T05:25:13.536Z,84.31
2018-08-16T05:27:41.886Z,84.33
2018-08-16T05:30:12.207Z,83.95
2018-08-16T05:32:40.877Z,84.22
2018-08-16T05:35:09.499Z,84.22
2018-08-16T05:37:38.652Z,84.41
2018-08-16T05:40:08.615Z,84.18
2018-08-16T05:42:37.042Z,83.56
2018-08-16T05:45:05.632Z,83.26
2018-08-16T05:47:33.947Z,82.47
2018-08-16T05:50:02.411Z,81.60
2018-08-16T05:52:30.726Z,81.69
2018-08-16T05:54:59.043Z,81.00
2018-08-16T05:57:27.385Z,80.49
2018-08-16T05:59:55.807Z,80.33
2018-08-16T06:02:24.179Z,80.57
2018-08-16T06:04:52.517Z,80.45
2018-08-16T06:07:21.176Z,80.06
2018-08-16T06:09:49.634Z,79.29
2018-08-16T06:12:17.995Z,79.43
2018-08-16T06:14:47.246Z,78.12
2018-08-16T06:17:15.942Z,78.53
2018-08-16T06:19:44.412Z,78.47
2018-08-16T06:22:12.782Z,77.82
2018-08-16T06:24:41.848Z,77.91
2018-08-16T06:27:10.253Z,77.58
2018-08-16T06:29:38.576Z,77.02
2018-08-16T06:32:07.208Z,76.90
2018-08-16T06:34:35.612Z,76.23
2018-08-16T06:37:04.147Z,76.67
2018-08-16T06:39:32.527Z,76.61
2018-08-16T06:42:00.817Z,75.62
2018-08-16T06:44:29.141Z,76.38
2018-08-16T06:46:57.946Z,76.37
2018-08-16T06:49:26.345Z,75.98
2018-08-16T06:51:54.878Z,75.60
2018-08-16T06:54:23.213Z,75.56
2018-08-16T06:56:51.500Z,75.06
2018-08-16T06:59:19.851Z,74.58
2018-08-16T07:01:48.246Z,74.58
2018-08-16T07:04:16.666Z,74.33
2018-08-16T07:06:45.113Z,73.46
2018-08-16T07:09:13.409Z,74.17
2018-08-16T07:11:41.722Z,71.92
2018-08-16T07:14:10.015Z,69.69
2018-08-16T07:16:38.288Z,69.66
2018-08-16T07:19:06.667Z,68.94
2018-08-16T07:21:34.951Z,68.08
2018-08-16T07:24:03.295Z,68.08
2018-08-16T07:26:31.575Z,68.02
2018-08-16T07:28:59.955Z,67.80
2018-08-16T07:31:28.270Z,67.46
2018-08-16T07:34:02.335Z,67.75
2018-08-16T07:36:30.643Z,66.42
2018-08-16T07:38:58.998Z,67.04
2018-08-16T07:41:27.299Z,65.87
2018-08-16T07:43:55.825Z,65.68
2018-08-16T07:46:24.165Z,65.28
2018-08-16T07:48:52.432Z,64.69
2018-08-16T07:51:21.011Z,64.57
2018-08-16T07:53:49.083Z,64.51
2018-08-16T07:56:17.386Z,62.53
2018-08-16T07:58:45.689Z,62.32
2018-08-16T08:01:16.970Z,62.82
2018-08-16T08:03:45.298Z,61.90
2018-08-16T08:06:13.683Z,62.66
2018-08-16T08:08:41.966Z,62.24
2018-08-16T08:11:10.266Z,62.97
2018-08-16T08:13:38.595Z,62.96
2018-08-16T08:16:06.987Z,61.74
2018-08-16T08:18:35.295Z,61.61
2018-08-16T08:21:03.609Z,60.84
2018-08-16T08:23:31.870Z,61.70
2018-08-16T08:26:00.190Z,61.36
2018-08-16T08:28:28.507Z,59.26
2018-08-16T08:30:56.846Z,59.51
2018-08-16T08:33:25.222Z,58.05
2018-08-16T08:36:05.123Z,58.35
2018-08-16T08:38:33.637Z,58.77
2018-08-16T08:41:02.227Z,57.07
2018-08-16T08:43:42.059Z,55.06
2018-08-16T08:46:10.517Z,56.16
2018-08-16T08:48:38.774Z,55.87
2018-08-16T08:51:07.096Z,55.91
2018-08-16T08:54:17.988Z,56.51
2018-08-16T08:56:57.779Z,55.28
2018-08-16T08:59:26.330Z,53.93
2018-08-16T09:01:54.575Z,53.46
2018-08-16T09:04:22.911Z,53.41
2018-08-16T09:06:51.260Z,54.60
2018-08-16T09:09:20.344Z,54.77
2018-08-16T09:11:59.905Z,54.96
2018-08-16T09:14:39.538Z,53.72
2018-08-16T09:17:08.233Z,53.88
2018-08-16T09:19:36.723Z,54.49
2018-08-16T09:22:05.117Z,53.83
2018-08-16T09:24:33.399Z,53.02
2018-08-16T09:27:01.707Z,53.09
2018-08-16T09:30:38.845Z,53.25
2018-08-16T09:33:18.591Z,51.30
2018-08-16T09:35:47.103Z,52.17
2018-08-16T09:38:15.397Z,52.87
2018-08-16T09:40:43.766Z,53.03
2018-08-16T09:43:12.043Z,52.81
2018-08-16T09:46:52.107Z,52.82
2018-08-16T09:49:20.390Z,52.35
2018-08-16T09:51:49.085Z,52.50
2018-08-16T09:54:17.295Z,52.30
2018-08-16T09:56:46.399Z,52.61
2018-08-16T09:59:14.714Z,52.15
2018-08-16T10:01:43.027Z,51.51
2018-08-16T10:04:11.406Z,51.35
2018-08-16T10:06:40.719Z,50.44
2018-08-16T10:09:13.067Z,50.84
2018-08-16T10:11:41.358Z,51.49
2018-08-16T10:14:09.670Z,51.00
2018-08-16T10:16:38.252Z,50.49
2018-08-16T10:19:06.814Z,50.20
2018-08-16T10:21:35.206Z,50.85
2018-08-16T10:24:03.959Z,51.50
2018-08-16T10:26:37.876Z,50.15
2018-08-16T10:29:06.942Z,50.37
2018-08-16T10:31:35.249Z,49.53
2018-08-16T10:34:03.571Z,48.86
2018-08-16T10:36:32.131Z,49.08
2018-08-16T10:39:00.443Z,49.00
2018-08-16T10:41:29.175Z,49.47
2018-08-16T10:43:57.556Z,48.68
2018-08-16T10:46:25.925Z,50.06
2018-08-16T10:48:54.268Z,49.64
2018-08-16T10:51:22.582Z,49.11
2018-08-16T10:53:50.932Z,49.88
2018-08-16T10:56:19.219Z,48.90
2018-08-16T10:58:47.521Z,48.33
2018-08-16T11:01:15.819Z,49.17
2018-08-16T11:03:44.159Z,48.52
2018-08-16T11:06:12.489Z,47.39
2018-08-16T11:08:40.899Z,48.39
2018-08-16T11:11:09.277Z,47.88
2018-08-16T11:13:37.928Z,48.29
2018-08-16T11:16:06.225Z,48.43
2018-08-16T11:18:34.551Z,48.24
2018-08-16T11:21:02.868Z,47.26
2018-08-16T11:23:31.153Z,47.53
2018-08-16T11:25:59.447Z,47.16
2018-08-16T11:28:27.742Z,47.48
2018-08-16T11:30:56.038Z,47.79
2018-08-16T11:33:25.385Z,48.18
2018-08-16T11:35:53.687Z,47.17
2018-08-16T11:38:22.023Z,47.20
2018-08-16T11:40:50.375Z,46.74
2018-08-16T11:43:18.722Z,45.74
2018-08-16T11:45:47.032Z,45.73
2018-08-16T11:48:15.332Z,46.61
2018-08-16T11:50:43.675Z,44.90
2018-08-16T11:53:12.030Z,46.00
2018-08-16T11:55:40.339Z,45.28
2018-08-16T11:58:08.663Z,45.54
2018-08-16T12:00:37.027Z,45.65
2018-08-16T12:03:05.934Z,44.58
2018-08-16T12:05:34.208Z,44.19
2018-08-16T12:08:02.537Z,44.48
2018-08-16T12:10:30.810Z,43.03
2018-08-16T12:12:59.191Z,42.30
2018-08-16T12:15:27.496Z,42.86
2018-08-16T12:17:55.819Z,43.55
2018-08-16T12:20:24.098Z,44.15
2018-08-16T12:22:52.540Z,44.12
2018-08-16T12:25:20.903Z,43.51
2018-08-16T12:27:49.267Z,44.09
2018-08-16T12:30:17.596Z,44.04
2018-08-16T12:32:46.015Z,44.93
2018-08-16T12:35:14.352Z,42.97
2018-08-16T12:37:42.860Z,41.78
2018-08-16T12:40:11.249Z,42.75
2018-08-16T12:42:39.590Z,41.29
2018-08-16T12:45:07.998Z,41.50
2018-08-16T12:47:36.320Z,40.04
2018-08-16T12:50:05.711Z,40.34
2018-08-16T12:52:34.328Z,42.53
2018-08-16T12:55:02.630Z,42.30
2018-08-16T12:57:31.214Z,42.80
2018-08-16T12:59:59.566Z,43.01
2018-08-16T13:02:27.887Z,41.34
2018-08-16T13:04:56.231Z,41.40
2018-08-16T13:07:24.554Z,41.57
2018-08-16T13:09:53.006Z,41.39
2018-08-16T13:12:21.887Z,41.26
2018-08-16T13:14:50.267Z,40.02
2018-08-16T13:17:19.042Z,41.55
2018-08-16T13:19:47.424Z,41.09
2018-08-16T13:22:22.637Z,40.31
2018-08-16T13:24:51.103Z,40.11
2018-08-16T13:27:19.409Z,40.91
2018-08-16T13:29:48.020Z,41.17
2018-08-16T13:32:16.459Z,39.25
2018-08-16T13:34:44.855Z,40.01
2018-08-16T13:37:13.443Z,40.89
2018-08-16T13:39:41.750Z,39.30
2018-08-16T13:42:10.327Z,38.36
2018-08-16T13:44:38.754Z,38.72
2018-08-16T13:47:07.264Z,39.69
2018-08-16T13:49:35.588Z,38.48
2018-08-16T13:52:04.413Z,39.79
2018-08-16T13:54:32.772Z,38.67
2018-08-16T13:57:01.074Z,39.46
2018-08-16T13:59:29.425Z,38.93
2018-08-16T14:01:57.785Z,40.07
2018-08-16T14:04:26.109Z,39.60
2018-08-16T14:06:54.369Z,39.20
2018-08-16T14:09:22.716Z,39.77
2018-08-16T14:11:51.199Z,38.32
2018-08-16T14:14:19.582Z,37.74
2018-08-16T14:16:47.919Z,37.48
2018-08-16T14:19:16.416Z,35.97
2018-08-16T14:21:44.877Z,37.37
2018-08-16T14:24:13.237Z,37.28
2018-08-16T14:26:41.585Z,37.82
2018-08-16T14:29:09.901Z,37.27
2018-08-16T14:31:38.203Z,35.18
2018-08-16T14:34:06.527Z,36.35
2018-08-16T14:36:34.850Z,35.03
2018-08-16T14:39:03.213Z,35.49
2018-08-16T14:41:31.721Z,35.03
2018-08-16T14:44:00.336Z,36.42
2018-08-16T14:46:28.642Z,37.12
2018-08-16T14:48:56.942Z,37.21
2018-08-16T14:51:25.378Z,35.64
2018-08-16T14:53:53.637Z,37.09
2018-08-16T14:56:22.064Z,36.94
2018-08-16T14:58:50.407Z,36.79
2018-08-16T15:01:18.715Z,36.50
2018-08-16T15:03:47.148Z,35.53
2018-08-16T15:06:15.466Z,35.33
2018-08-16T15:08:43.801Z,36.80
2018-08-16T15:11:12.133Z,36.12
2018-08-16T15:13:40.459Z,35.15
2018-08-16T15:16:08.778Z,34.95
2018-08-16T15:18:37.085Z,35.91
2018-08-16T15:21:05.446Z,35.84
2018-08-16T15:23:33.754Z,35.82
2018-08-16T15:26:02.126Z,36.17
2018-08-16T15:28:30.495Z,36.03
2018-08-16T15:30:58.935Z,36.20
2018-08-16T15:33:27.266Z,37.34
2018-08-16T15:35:55.758Z,36.11
2018-08-16T15:38:24.106Z,36.38
2018-08-16T15:40:52.656Z,37.22
2018-08-16T15:43:20.890Z,36.79
2018-08-16T15:45:49.216Z,36.62
2018-08-16T15:48:17.551Z,35.74
2018-08-16T15:50:46.366Z,35.94
2018-08-16T15:53:14.881Z,36.47
2018-08-16T15:55:44.218Z,35.68
2018-08-16T15:58:12.532Z,37.20
2018-08-16T16:00:40.848Z,38.14
2018-08-16T16:03:09.401Z,35.58
2018-08-16T16:05:37.829Z,36.16
2018-08-16T16:08:06.162Z,36.69
2018-08-16T16:10:34.570Z,37.85
2018-08-16T16:13:02.926Z,38.23
2018-08-16T16:15:31.260Z,37.46
2018-08-16T16:17:59.769Z,37.71
2018-08-16T16:20:28.102Z,38.11
2018-08-16T16:22:56.576Z,37.46
2018-08-16T16:25:24.873Z,37.99
2018-08-16T16:27:53.344Z,37.71
2018-08-16T16:30:21.625Z,37.40
2018-08-16T16:32:49.939Z,38.16
2018-08-16T16:35:18.209Z,37.06
2018-08-16T16:37:46.584Z,37.18
2018-08-16T16:40:14.890Z,37.32
2018-08-16T16:42:43.234Z,38.31
2018-08-16T16:45:11.518Z,38.35
2018-08-16T16:47:39.851Z,38.72
2018-08-16T16:50:09.099Z,39.21
2018-08-16T16:52:44.734Z,38.86
2018-08-16T16:55:13.069Z,38.35
2018-08-16T16:57:41.354Z,38.30
2018-08-16T17:00:09.844Z,39.05
2018-08-16T17:02:38.287Z,37.86
2018-08-16T17:05:06.705Z,39.02
2018-08-16T17:07:35.062Z,37.99
2018-08-16T17:10:03.376Z,39.15
2018-08-16T17:12:31.848Z,38.86
2018-08-16T17:15:00.176Z,39.69
2018-08-16T17:17:28.566Z,39.30
2018-08-16T17:19:56.859Z,38.84
2018-08-16T17:22:25.364Z,38.63
2018-08-16T17:24:53.845Z,39.12
2018-08-16T17:27:22.299Z,38.90
2018-08-16T17:29:50.584Z,39.16
2018-08-16T17:32:19.185Z,40.44
2018-08-16T17:34:47.651Z,41.05
2018-08-16T17:37:15.953Z,41.73
2018-08-16T17:39:44.269Z,41.72
2018-08-16T17:42:12.862Z,42.37
2018-08-16T17:44:41.163Z,43.23
2018-08-16T17:47:09.748Z,43.68
2018-08-16T17:49:38.095Z,44.40
2018-08-16T17:52:06.570Z,45.81
2018-08-16T17:54:35.103Z,46.26
2018-08-16T17:57:03.447Z,45.99
2018-08-16T17:59:31.979Z,45.92
2018-08-16T18:02:00.555Z,46.00
2018-08-16T18:04:29.042Z,47.39
2018-08-16T18:06:57.799Z,47.34
2018-08-16T18:09:26.110Z,47.07
2018-08-16T18:11:54.553Z,46.90
2018-08-16T18:14:22.842Z,47.91
2018-08-16T18:16:51.159Z,47.15
2018-08-16T18:19:19.575Z,47.59
2018-08-16T18:21:47.992Z,47.62
2018-08-16T18:24:16.313Z,48.65
2018-08-16T18:26:44.612Z,48.78
2018-08-16T18:29:13.116Z,49.25
2018-08-16T18:31:41.629Z,50.04
2018-08-16T18:34:10.102Z,51.05
2018-08-16T18:36:38.626Z,51.54
2018-08-16T18:39:08.612Z,51.37
2018-08-16T18:41:37.289Z,50.33
2018-08-16T18:44:05.572Z,51.49
2018-08-16T18:46:33.912Z,51.82
2018-08-16T18:49:02.569Z,52.64
2018-08-16T18:51:30.863Z,52.59
2018-08-16T18:53:59.354Z,52.65
2018-08-16T18:56:27.671Z,53.36
2018-08-16T18:58:56.078Z,54.13
2018-08-16T19:01:25.705Z,54.20
2018-08-16T19:03:54.845Z,55.61
2018-08-16T19:06:24.490Z,53.16
2018-08-16T19:08:52.837Z,54.95
2018-08-16T19:11:21.292Z,55.25
2018-08-16T19:13:49.771Z,55.12
2018-08-16T19:16:18.192Z,55.92
2018-08-16T19:18:46.601Z,54.23
2018-08-16T19:21:14.860Z,55.25
2018-08-16T19:23:43.243Z,55.71
2018-08-16T19:26:11.839Z,55.15
2018-08-16T19:28:40.155Z,56.98
2018-08-16T19:31:08.428Z,55.49
2018-08-16T19:33:36.734Z,55.85
2018-08-16T19:36:05.784Z,56.57
2018-08-16T19:38:34.186Z,58.10
2018-08-16T19:41:02.597Z,58.70
2018-08-16T19:43:31.065Z,58.72
2018-08-16T19:45:59.655Z,58.55
2018-08-16T19:48:28.063Z,59.35
2018-08-16T19:50:56.366Z,59.17
2018-08-16T19:53:24.731Z,59.19
2018-08-16T19:55:53.128Z,58.60
2018-08-16T19:58:21.438Z,59.68
2018-08-16T20:00:49.800Z,60.05
2018-08-16T20:03:18.137Z,60.08
2018-08-16T20:05:46.542Z,60.83
2018-08-16T20:08:14.895Z,61.35
2018-08-16T20:10:43.192Z,60.74
2018-08-16T20:13:11.606Z,61.27
2018-08-16T20:15:40.181Z,60.88
2018-08-16T20:18:08.658Z,60.88
2018-08-16T20:20:36.891Z,61.88
2018-08-16T20:23:05.344Z,62.17
2018-08-16T20:25:33.770Z,63.03
2018-08-16T20:28:02.184Z,62.63
2018-08-16T20:30:33.127Z,62.34
2018-08-16T20:33:01.522Z,61.74
2018-08-16T20:35:29.863Z,62.02
2018-08-16T20:37:58.310Z,63.13
2018-08-16T20:40:26.705Z,64.04
2018-08-16T20:42:55.255Z,63.87
2018-08-16T20:45:23.516Z,63.55
2018-08-16T20:47:51.829Z,62.87
2018-08-16T20:50:20.143Z,62.48
2018-08-16T20:52:48.432Z,62.74
2018-08-16T20:55:16.784Z,63.00
2018-08-16T20:57:45.238Z,63.18
2018-08-16T21:00:13.594Z,65.12
2018-08-16T21:02:41.904Z,64.65
2018-08-16T21:05:10.483Z,64.92
2018-08-16T21:07:38.740Z,64.17
2018-08-16T21:10:08.188Z,64.39
2018-08-16T21:12:36.455Z,64.61
2018-08-16T21:15:05.944Z,64.70
2018-08-16T21:17:34.122Z,64.98
2018-08-16T21:20:02.515Z,65.70
2018-08-16T21:22:30.804Z,65.44
2018-08-16T21:24:59.092Z,65.68
2018-08-16T21:27:27.498Z,65.66
2018-08-16T21:29:55.787Z,65.76
2018-08-16T21:32:24.086Z,65.89
2018-08-16T21:34:52.355Z,65.99
2018-08-16T21:37:20.659Z,65.88
2018-08-16T21:39:48.954Z,66.52
2018-08-16T21:42:17.294Z,66.27
2018-08-16T21:44:45.623Z,66.51
2018-08-16T21:47:14.063Z,66.62
2018-08-16T21:49:42.346Z,67.38
2018-08-16T21:52:10.726Z,67.40
2018-08-16T21:54:39.026Z,66.99
2018-08-16T21:57:07.471Z,67.42
2018-08-16T21:59:35.846Z,68.34
2018-08-16T22:02:04.671Z,68.34
2018-08-16T22:04:33.005Z,67.93
2018-08-16T22:07:09.964Z,67.91
2018-08-16T22:09:38.387Z,68.15
2018-08-16T22:12:06.679Z,67.77
2018-08-16T22:14:35.035Z,67.95
2018-08-16T22:17:03.347Z,68.02
2018-08-16T22:19:31.628Z,67.93
2018-08-16T22:21:59.950Z,67.22
2018-08-16T22:24:28.214Z,60.10
2018-08-16T22:26:56.555Z,58.49
2018-08-16T22:29:24.846Z,58.87
2018-08-16T22:31:59.074Z,57.85
2018-08-16T22:34:27.358Z,59.33
2018-08-16T22:36:55.656Z,62.73
2018-08-16T22:39:24.090Z,63.00
2018-08-16T22:41:52.508Z,64.72
2018-08-16T22:44:20.843Z,65.39
2018-08-16T22:46:49.161Z,65.36
2018-08-16T22:49:17.435Z,66.11
2018-08-16T22:51:45.745Z,65.63
2018-08-16T22:54:14.271Z,65.51
2018-08-16T22:56:42.603Z,65.71
2018-08-16T22:59:10.898Z,64.95
2018-08-16T23:01:39.280Z,63.79
2018-08-16T23:04:07.602Z,63.60
2018-08-16T23:06:35.943Z,60.91
2018-08-16T23:09:04.800Z,59.97
2018-08-16T23:11:33.247Z,59.50
2018-08-16T23:14:01.565Z,59.82
2018-08-16T23:16:29.872Z,59.88
2018-08-16T23:18:58.249Z,59.02
2018-08-16T23:21:26.566Z,59.74
2018-08-16T23:23:54.891Z,59.12
2018-08-16T23:26:23.172Z,59.73
2018-08-16T23:28:51.620Z,60.57
2018-08-16T23:31:20.043Z,59.66
2018-08-16T23:33:48.584Z,61.19
2018-08-16T23:36:16.907Z,60.97
2018-08-16T23:38:45.225Z,60.81
2018-08-16T23:41:13.619Z,61.43
2018-08-16T23:43:42.619Z,61.57
2018-08-16T23:46:10.987Z,60.97
2018-08-16T23:48:39.294Z,62.26
2018-08-16T23:51:07.579Z,60.94
2018-08-16T23:53:35.903Z,60.82
2018-08-16T23:56:04.238Z,62.18
2018-08-16T23:58:32.570Z,61.27
